sensor_id;sensor_type;location;lat;lon;timestamp;pressure;altitude;pressure_sealevel;temperature;humidity
56330;BME280;42236;48.058;10.632;2022-11-18T00:02:31;93022.69;;;7.12;100.00
56330;BME280;42236;48.058;10.632;2022-11-18T00:05:17;93023.47;;;7.13;100.00
56330;BME280;42236;48.058;10.632;2022-11-18T00:08:02;93011.22;;;7.12;99.83
56330;BME280;42236;48.058;10.632;2022-11-18T00:10:48;93018.84;;;7.10;100.00
56330;BME280;42236;48.058;10.632;2022-11-18T00:13:34;93015.81;;;7.11;99.78
56330;BME280;42236;48.058;10.632;2022-11-18T00:16:40;93013.13;;;7.11;99.57
56330;BME280;42236;48.058;10.632;2022-11-18T00:19:30;93013.88;;;7.12;99.17
56330;BME280;42236;48.058;10.632;2022-11-18T00:22:16;93008.53;;;7.12;98.56
56330;BME280;42236;48.058;10.632;2022-11-18T00:25:02;93008.53;;;7.12;98.79
56330;BME280;42236;48.058;10.632;2022-11-18T00:27:48;93010.88;;;7.13;98.70
56330;BME280;42236;48.058;10.632;2022-11-18T00:30:33;93001.69;;;7.14;98.61
56330;BME280;42236;48.058;10.632;2022-11-18T00:33:19;93005.91;;;7.15;98.37
56330;BME280;42236;48.058;10.632;2022-11-18T00:36:07;93006.69;;;7.16;98.07
56330;BME280;42236;48.058;10.632;2022-11-18T00:38:53;93003.63;;;7.17;97.81
56330;BME280;42236;48.058;10.632;2022-11-18T00:41:38;93007.47;;;7.16;98.13
56330;BME280;42236;48.058;10.632;2022-11-18T00:44:43;92994.03;;;7.16;97.93
56330;BME280;42236;48.058;10.632;2022-11-18T00:47:28;93007.09;;;7.18;97.87
56330;BME280;42236;48.058;10.632;2022-11-18T00:50:14;93000.59;;;7.19;97.64
56330;BME280;42236;48.058;10.632;2022-11-18T00:53:00;93011.31;;;7.19;97.62
56330;BME280;42236;48.058;10.632;2022-11-18T00:55:46;93006.31;;;7.17;97.39
56330;BME280;42236;48.058;10.632;2022-11-18T00:58:32;93007.47;;;7.16;97.68
56330;BME280;42236;48.058;10.632;2022-11-18T01:01:18;93009.00;;;7.17;98.05
56330;BME280;42236;48.058;10.632;2022-11-18T01:04:04;92997.47;;;7.13;97.91
56330;BME280;42236;48.058;10.632;2022-11-18T01:06:50;93011.28;;;7.15;98.30
56330;BME280;42236;48.058;10.632;2022-11-18T01:09:36;93012.81;;;7.16;98.24
56330;BME280;42236;48.058;10.632;2022-11-18T01:12:21;93014.34;;;7.17;98.33
56330;BME280;42236;48.058;10.632;2022-11-18T01:15:25;93018.53;;;7.15;98.75
56330;BME280;42236;48.058;10.632;2022-11-18T01:18:11;93021.94;;;7.12;98.63
56330;BME280;42236;48.058;10.632;2022-11-18T01:21:01;93022.69;;;7.12;98.57
56330;BME280;42236;48.058;10.632;2022-11-18T01:23:47;93024.97;;;7.10;99.43
56330;BME280;42236;48.058;10.632;2022-11-18T01:26:33;93020.41;;;7.11;99.31
56330;BME280;42236;48.058;10.632;2022-11-18T01:29:19;93013.53;;;7.13;99.03
56330;BME280;42236;48.058;10.632;2022-11-18T01:32:05;93015.81;;;7.11;99.22
56330;BME280;42236;48.058;10.632;2022-11-18T01:34:50;93017.34;;;7.12;99.31
56330;BME280;42236;48.058;10.632;2022-11-18T01:37:37;93009.28;;;7.12;99.33
56330;BME280;42236;48.058;10.632;2022-11-18T01:40:25;93011.16;;;7.08;99.84
56330;BME280;42236;48.058;10.632;2022-11-18T01:43:16;93005.00;;;7.08;99.34
56330;BME280;42236;48.058;10.632;2022-11-18T01:46:02;93007.28;;;7.05;99.78
56330;BME280;42236;48.058;10.632;2022-11-18T01:48:58;93005.72;;;7.04;100.00
56330;BME280;42236;48.058;10.632;2022-11-18T01:51:52;93006.44;;;7.01;99.99
56330;BME280;42236;48.058;10.632;2022-11-18T01:54:42;93012.16;;;7.00;100.00
56330;BME280;42236;48.058;10.632;2022-11-18T01:57:31;93011.81;;;7.01;99.87
56330;BME280;42236;48.058;10.632;2022-11-18T02:00:17;93009.56;;;7.03;99.23
56330;BME280;42236;48.058;10.632;2022-11-18T02:03:03;93017.59;;;7.03;99.40
56330;BME280;42236;48.058;10.632;2022-11-18T02:05:49;93019.47;;;7.03;99.82
56330;BME280;42236;48.058;10.632;2022-11-18T02:08:36;93023.72;;;7.04;99.08
56330;BME280;42236;48.058;10.632;2022-11-18T02:11:23;93017.94;;;7.02;99.38
56330;BME280;42236;48.058;10.632;2022-11-18T02:14:29;93019.47;;;7.03;99.55
56330;BME280;42236;48.058;10.632;2022-11-18T02:20:30;93019.09;;;7.01;99.26
56330;BME280;42236;48.058;10.632;2022-11-18T02:29:39;93025.03;;;6.91;99.31
56330;BME280;42236;48.058;10.632;2022-11-18T02:32:33;93014.28;;;6.91;99.39
56330;BME280;42236;48.058;10.632;2022-11-18T02:35:28;93027.69;;;6.91;99.52
56330;BME280;42236;48.058;10.632;2022-11-18T02:38:27;93026.94;;;6.90;99.43
56330;BME280;42236;48.058;10.632;2022-11-18T02:41:17;93029.97;;;6.89;99.96
56330;BME280;42236;48.058;10.632;2022-11-18T02:44:08;93024.63;;;6.89;99.76
56330;BME280;42236;48.058;10.632;2022-11-18T02:47:00;93023.81;;;6.88;99.40
56330;BME280;42236;48.058;10.632;2022-11-18T02:49:51;93022.28;;;6.87;100.00
56330;BME280;42236;48.058;10.632;2022-11-18T02:52:39;93033.78;;;6.88;99.83
56330;BME280;42236;48.058;10.632;2022-11-18T02:55:28;93025.41;;;6.89;100.00
56330;BME280;42236;48.058;10.632;2022-11-18T02:58:16;93027.66;;;6.87;99.82
56330;BME280;42236;48.058;10.632;2022-11-18T03:01:03;93031.44;;;6.86;99.77
56330;BME280;42236;48.058;10.632;2022-11-18T03:03:49;93036.03;;;6.86;99.82
56330;BME280;42236;48.058;10.632;2022-11-18T03:06:47;93043.66;;;6.83;100.00
56330;BME280;42236;48.058;10.632;2022-11-18T03:09:36;93035.63;;;6.83;100.00
56330;BME280;42236;48.058;10.632;2022-11-18T03:12:33;93032.94;;;6.83;100.00
56330;BME280;42236;48.058;10.632;2022-11-18T03:15:43;93032.25;;;6.87;100.00
56330;BME280;42236;48.058;10.632;2022-11-18T03:18:43;93026.47;;;6.84;100.00
56330;BME280;42236;48.058;10.632;2022-11-18T03:21:43;93014.59;;;6.86;100.00
56330;BME280;42236;48.058;10.632;2022-11-18T03:24:32;93022.63;;;6.86;100.00
56330;BME280;42236;48.058;10.632;2022-11-18T03:27:28;93016.94;;;6.87;100.00
56330;BME280;42236;48.058;10.632;2022-11-18T03:30:19;93012.34;;;6.88;100.00
56330;BME280;42236;48.058;10.632;2022-11-18T03:33:09;93012.34;;;6.88;100.00
56330;BME280;42236;48.058;10.632;2022-11-18T03:35:57;93028.38;;;6.84;100.00
56330;BME280;42236;48.058;10.632;2022-11-18T03:38:50;93029.91;;;6.85;100.00
56330;BME280;42236;48.058;10.632;2022-11-18T03:41:43;93032.66;;;6.89;100.00
56330;BME280;42236;48.058;10.632;2022-11-18T03:44:33;93041.47;;;6.89;100.00
56330;BME280;42236;48.058;10.632;2022-11-18T03:47:26;93039.91;;;6.88;99.79
56330;BME280;42236;48.058;10.632;2022-11-18T03:50:20;93039.13;;;6.88;100.00
56330;BME280;42236;48.058;10.632;2022-11-18T03:53:10;93051.44;;;6.89;99.93
56330;BME280;42236;48.058;10.632;2022-11-18T03:56:01;93038.03;;;6.89;99.95
56330;BME280;42236;48.058;10.632;2022-11-18T03:58:53;93041.41;;;6.86;100.00
56330;BME280;42236;48.058;10.632;2022-11-18T04:01:46;93037.19;;;6.84;100.00
56330;BME280;42236;48.058;10.632;2022-11-18T04:04:33;93047.53;;;6.86;99.75
56330;BME280;42236;48.058;10.632;2022-11-18T04:07:43;93046.06;;;6.89;99.79
56330;BME280;42236;48.058;10.632;2022-11-18T04:10:49;93050.28;;;6.90;99.38
56330;BME280;42236;48.058;10.632;2022-11-18T04:13:38;93049.16;;;6.91;99.11
56330;BME280;42236;48.058;10.632;2022-11-18T04:16:23;93066.03;;;6.91;99.25
56330;BME280;42236;48.058;10.632;2022-11-18T04:19:10;93067.22;;;6.94;98.64
56330;BME280;42236;48.058;10.632;2022-11-18T04:21:56;93063.41;;;6.95;98.64
56330;BME280;42236;48.058;10.632;2022-11-18T04:24:41;93069.09;;;6.93;98.54
56330;BME280;42236;48.058;10.632;2022-11-18T04:27:27;93064.53;;;6.94;98.41
56330;BME280;42236;48.058;10.632;2022-11-18T04:30:13;93077.56;;;6.95;97.82
56330;BME280;42236;48.058;10.632;2022-11-18T04:32:59;93078.34;;;6.96;97.98
56330;BME280;42236;48.058;10.632;2022-11-18T04:35:46;93076.47;;;6.96;97.79
56330;BME280;42236;48.058;10.632;2022-11-18T04:38:31;93071.84;;;6.97;97.94
56330;BME280;42236;48.058;10.632;2022-11-18T04:41:17;93077.66;;;6.99;97.31
56330;BME280;42236;48.058;10.632;2022-11-18T04:44:03;93074.97;;;6.99;97.12
56330;BME280;42236;48.058;10.632;2022-11-18T04:46:59;93063.09;;;7.00;96.73
56330;BME280;42236;48.058;10.632;2022-11-18T04:49:45;93068.47;;;7.00;96.17
56330;BME280;42236;48.058;10.632;2022-11-18T04:52:30;93070.72;;;6.98;96.71
56330;BME280;42236;48.058;10.632;2022-11-18T04:55:16;93076.88;;;6.98;96.65
56330;BME280;42236;48.058;10.632;2022-11-18T04:58:02;93065.34;;;6.98;96.24
56330;BME280;42236;48.058;10.632;2022-11-18T05:00:49;93072.28;;;6.99;96.86
56330;BME280;42236;48.058;10.632;2022-11-18T05:03:35;93064.94;;;6.96;96.56
56330;BME280;42236;48.058;10.632;2022-11-18T05:06:21;93062.25;;;6.96;96.51
56330;BME280;42236;48.058;10.632;2022-11-18T05:09:07;93075.25;;;6.94;96.91
56330;BME280;42236;48.058;10.632;2022-11-18T05:11:53;93075.25;;;6.94;96.44
56330;BME280;42236;48.058;10.632;2022-11-18T05:14:58;93070.66;;;6.94;97.02
56330;BME280;42236;48.058;10.632;2022-11-18T05:17:44;93071.44;;;6.95;96.53
56330;BME280;42236;48.058;10.632;2022-11-18T05:20:29;93089.06;;;6.96;96.56
56330;BME280;42236;48.058;10.632;2022-11-18T05:23:15;93085.25;;;6.97;96.36
56330;BME280;42236;48.058;10.632;2022-11-18T05:26:04;93087.53;;;6.95;97.07
56330;BME280;42236;48.058;10.632;2022-11-18T05:28:50;93099.38;;;6.94;97.40
56330;BME280;42236;48.058;10.632;2022-11-18T05:31:36;93107.44;;;6.94;97.58
56330;BME280;42236;48.058;10.632;2022-11-18T05:34:22;93100.88;;;6.91;97.66
56330;BME280;42236;48.058;10.632;2022-11-18T05:37:08;93105.81;;;6.89;98.01
56330;BME280;42236;48.058;10.632;2022-11-18T05:39:54;93114.63;;;6.90;98.06
56330;BME280;42236;48.058;10.632;2022-11-18T05:42:39;93116.09;;;6.87;98.28
56330;BME280;42236;48.058;10.632;2022-11-18T05:45:43;93135.63;;;6.88;98.54
56330;BME280;42236;48.058;10.632;2022-11-18T05:48:29;93131.41;;;6.87;99.00
56330;BME280;42236;48.058;10.632;2022-11-18T05:51:14;93144.69;;;6.79;99.52
56330;BME280;42236;48.058;10.632;2022-11-18T05:54:06;93147.50;;;6.67;100.00
56330;BME280;42236;48.058;10.632;2022-11-18T05:56:53;93158.75;;;6.57;100.00
56330;BME280;42236;48.058;10.632;2022-11-18T05:59:39;93158.59;;;6.50;100.00
56330;BME280;42236;48.058;10.632;2022-11-18T06:02:24;93158.44;;;6.43;100.00
56330;BME280;42236;48.058;10.632;2022-11-18T06:05:11;93159.94;;;6.40;100.00
56330;BME280;42236;48.058;10.632;2022-11-18T06:07:57;93163.41;;;6.40;100.00
56330;BME280;42236;48.058;10.632;2022-11-18T06:10:43;93171.44;;;6.40;100.00
56330;BME280;42236;48.058;10.632;2022-11-18T06:13:34;93166.09;;;6.40;100.00
56330;BME280;42236;48.058;10.632;2022-11-18T06:16:24;93185.25;;;6.43;100.00
56330;BME280;42236;48.058;10.632;2022-11-18T06:19:11;93174.13;;;6.40;100.00
56330;BME280;42236;48.058;10.632;2022-11-18T06:21:57;93185.25;;;6.43;100.00
56330;BME280;42236;48.058;10.632;2022-11-18T06:24:43;93207.47;;;6.43;100.00
56330;BME280;42236;48.058;10.632;2022-11-18T06:27:29;93195.53;;;6.40;100.00
56330;BME280;42236;48.058;10.632;2022-11-18T06:30:15;93194.84;;;6.44;100.00
56330;BME280;42236;48.058;10.632;2022-11-18T06:33:01;93194.84;;;6.44;100.00
56330;BME280;42236;48.058;10.632;2022-11-18T06:35:47;93209.78;;;6.45;100.00
56330;BME280;42236;48.058;10.632;2022-11-18T06:38:33;93203.66;;;6.44;100.00
56330;BME280;42236;48.058;10.632;2022-11-18T06:41:18;93209.78;;;6.45;100.00
56330;BME280;42236;48.058;10.632;2022-11-18T06:44:04;93214.03;;;6.46;100.00
56330;BME280;42236;48.058;10.632;2022-11-18T06:46:49;93213.66;;;6.47;100.00
56330;BME280;42236;48.058;10.632;2022-11-18T06:49:41;93220.59;;;6.48;100.00
56330;BME280;42236;48.058;10.632;2022-11-18T06:52:27;93223.75;;;6.54;100.00
56330;BME280;42236;48.058;10.632;2022-11-18T06:55:12;93217.69;;;6.57;100.00
56330;BME280;42236;48.058;10.632;2022-11-18T06:57:58;93226.16;;;6.59;100.00
56330;BME280;42236;48.058;10.632;2022-11-18T07:00:44;93221.66;;;6.63;100.00
56330;BME280;42236;48.058;10.632;2022-11-18T07:03:29;93235.84;;;6.63;100.00
56330;BME280;42236;48.058;10.632;2022-11-18T07:06:17;93233.94;;;6.64;100.00
56330;BME280;42236;48.058;10.632;2022-11-18T07:09:06;93241.19;;;6.63;100.00
56330;BME280;42236;48.058;10.632;2022-11-18T07:11:51;93242.34;;;6.62;100.00
56330;BME280;42236;48.058;10.632;2022-11-18T07:14:37;93242.66;;;6.61;100.00
56330;BME280;42236;48.058;10.632;2022-11-18T07:17:23;93246.91;;;6.62;100.00
56330;BME280;42236;48.058;10.632;2022-11-18T07:20:09;93243.81;;;6.60;100.00
56330;BME280;42236;48.058;10.632;2022-11-18T07:22:54;93246.50;;;6.60;100.00
56330;BME280;42236;48.058;10.632;2022-11-18T07:25:40;93256.78;;;6.58;100.00
56330;BME280;42236;48.058;10.632;2022-11-18T07:28:27;93259.88;;;6.60;100.00
56330;BME280;42236;48.058;10.632;2022-11-18T07:31:18;93261.00;;;6.59;100.00
56330;BME280;42236;48.058;10.632;2022-11-18T07:34:05;93258.75;;;6.61;100.00
56330;BME280;42236;48.058;10.632;2022-11-18T07:36:51;93266.78;;;6.61;100.00
56330;BME280;42236;48.058;10.632;2022-11-18T07:39:36;93263.69;;;6.59;100.00
56330;BME280;42236;48.058;10.632;2022-11-18T07:42:22;93268.59;;;6.57;100.00
56330;BME280;42236;48.058;10.632;2022-11-18T07:45:11;93268.19;;;6.55;100.00
56330;BME280;42236;48.058;10.632;2022-11-18T07:47:56;93272.84;;;6.58;100.00
56330;BME280;42236;48.058;10.632;2022-11-18T07:50:42;93272.16;;;6.61;100.00
56330;BME280;42236;48.058;10.632;2022-11-18T07:53:32;93274.56;;;6.66;100.00
56330;BME280;42236;48.058;10.632;2022-11-18T07:56:17;93280.00;;;6.70;100.00
56330;BME280;42236;48.058;10.632;2022-11-18T07:59:03;93281.66;;;6.74;100.00
56330;BME280;42236;48.058;10.632;2022-11-18T08:01:49;93283.19;;;6.75;100.00
56330;BME280;42236;48.058;10.632;2022-11-18T08:04:36;93287.78;;;6.75;100.00
56330;BME280;42236;48.058;10.632;2022-11-18T08:07:21;93285.53;;;6.77;99.69
56330;BME280;42236;48.058;10.632;2022-11-18T08:10:07;93284.06;;;6.79;100.00
56330;BME280;42236;48.058;10.632;2022-11-18T08:12:55;93280.72;;;6.86;99.65
56330;BME280;42236;48.058;10.632;2022-11-18T08:15:41;93282.44;;;6.94;99.49
56330;BME280;42236;48.058;10.632;2022-11-18T08:18:28;93272.94;;;6.97;98.63
56330;BME280;42236;48.058;10.632;2022-11-18T08:21:16;93286.06;;;7.02;98.67
56330;BME280;42236;48.058;10.632;2022-11-18T08:24:02;93290.84;;;7.12;98.73
56330;BME280;42236;48.058;10.632;2022-11-18T08:26:47;93294.84;;;7.18;97.96
56330;BME280;42236;48.058;10.632;2022-11-18T08:29:33;93291.03;;;7.39;98.30
56330;BME280;42236;48.058;10.632;2022-11-18T08:32:19;93289.13;;;7.59;98.72
56330;BME280;42236;48.058;10.632;2022-11-18T08:35:05;93295.75;;;7.65;96.80
56330;BME280;42236;48.058;10.632;2022-11-18T08:37:51;93300.06;;;7.69;97.12
56330;BME280;42236;48.058;10.632;2022-11-18T08:40:37;93294.47;;;7.78;96.50
56330;BME280;42236;48.058;10.632;2022-11-18T08:43:23;93299.00;;;7.74;95.99
56330;BME280;42236;48.058;10.632;2022-11-18T08:46:09;93296.53;;;7.65;95.96
56330;BME280;42236;48.058;10.632;2022-11-18T08:48:55;93302.69;;;7.66;94.94
56330;BME280;42236;48.058;10.632;2022-11-18T08:51:41;93312.06;;;7.76;95.50
56330;BME280;42236;48.058;10.632;2022-11-18T08:54:26;93306.84;;;7.83;94.57
56330;BME280;42236;48.058;10.632;2022-11-18T08:57:12;93306.13;;;7.86;94.75
56330;BME280;42236;48.058;10.632;2022-11-18T08:59:58;93305.47;;;7.93;94.71
56330;BME280;42236;48.058;10.632;2022-11-18T09:02:43;93304.69;;;7.92;93.37
56330;BME280;42236;48.058;10.632;2022-11-18T09:05:29;93312.44;;;7.97;93.71
56330;BME280;42236;48.058;10.632;2022-11-18T09:08:15;93312.19;;;8.02;93.83
56330;BME280;42236;48.058;10.632;2022-11-18T09:11:13;93309.63;;;8.09;92.80
56330;BME280;42236;48.058;10.632;2022-11-18T09:14:00;93309.78;;;8.20;93.11
56330;BME280;42236;48.058;10.632;2022-11-18T09:16:46;93319.88;;;8.27;92.73
56330;BME280;42236;48.058;10.632;2022-11-18T09:19:31;93318.59;;;8.40;92.78
56330;BME280;42236;48.058;10.632;2022-11-18T09:22:18;93320.59;;;8.43;92.13
56330;BME280;42236;48.058;10.632;2022-11-18T09:25:04;93328.66;;;8.43;91.23
56330;BME280;42236;48.058;10.632;2022-11-18T09:27:50;93317.94;;;8.47;91.49
56330;BME280;42236;48.058;10.632;2022-11-18T09:30:37;93326.31;;;8.42;90.84
56330;BME280;42236;48.058;10.632;2022-11-18T09:33:22;93330.03;;;8.37;90.76
56330;BME280;42236;48.058;10.632;2022-11-18T09:36:20;93332.25;;;8.31;91.06
56330;BME280;42236;48.058;10.632;2022-11-18T09:39:06;93340.66;;;8.30;91.20
56330;BME280;42236;48.058;10.632;2022-11-18T09:45:11;93336.31;;;8.22;91.94
56330;BME280;42236;48.058;10.632;2022-11-18T09:48:12;93339.00;;;8.22;90.89
56330;BME280;42236;48.058;10.632;2022-11-18T09:51:00;93333.53;;;8.18;90.91
56330;BME280;42236;48.058;10.632;2022-11-18T09:53:46;93344.88;;;8.08;91.28
56330;BME280;42236;48.058;10.632;2022-11-18T09:56:31;93350.75;;;7.94;91.42
56330;BME280;42236;48.058;10.632;2022-11-18T09:59:19;93358.03;;;7.94;91.93
56330;BME280;42236;48.058;10.632;2022-11-18T10:02:40;93350.19;;;7.85;91.82
56330;BME280;42236;48.058;10.632;2022-11-18T10:05:33;93355.34;;;7.94;92.07
56330;BME280;42236;48.058;10.632;2022-11-18T10:11:23;93369.09;;;8.11;91.57
56330;BME280;42236;48.058;10.632;2022-11-18T10:17:30;93374.41;;;8.08;90.14
56330;BME280;42236;48.058;10.632;2022-11-18T10:20:35;93377.16;;;8.11;89.95
56330;BME280;42236;48.058;10.632;2022-11-18T10:26:37;93378.78;;;8.16;89.70
56330;BME280;42236;48.058;10.632;2022-11-18T10:29:23;93376.47;;;8.15;89.42
56330;BME280;42236;48.058;10.632;2022-11-18T10:32:13;93373.34;;;8.12;90.02
56330;BME280;42236;48.058;10.632;2022-11-18T10:35:00;93374.91;;;8.13;89.81
56330;BME280;42236;48.058;10.632;2022-11-18T10:37:58;93382.53;;;8.11;89.71
56330;BME280;42236;48.058;10.632;2022-11-18T10:41:07;93376.50;;;7.95;89.05
56330;BME280;42236;48.058;10.632;2022-11-18T10:43:55;93388.50;;;7.82;89.58
56330;BME280;42236;48.058;10.632;2022-11-18T10:46:40;93385.03;;;7.81;90.33
56330;BME280;42236;48.058;10.632;2022-11-18T10:49:26;93385.81;;;7.82;90.88
56330;BME280;42236;48.058;10.632;2022-11-18T10:52:22;93375.41;;;7.80;90.54
56330;BME280;42236;48.058;10.632;2022-11-18T10:55:18;93401.84;;;7.78;90.30
56330;BME280;42236;48.058;10.632;2022-11-18T10:58:12;93390.31;;;7.78;90.64
56330;BME280;42236;48.058;10.632;2022-11-18T11:04:03;93380.53;;;7.85;90.27
56330;BME280;42236;48.058;10.632;2022-11-18T11:06:57;93386.94;;;7.81;90.65
56330;BME280;42236;48.058;10.632;2022-11-18T11:09:43;93384.69;;;7.83;90.82
56330;BME280;42236;48.058;10.632;2022-11-18T11:12:32;93380.78;;;7.80;90.86
56330;BME280;42236;48.058;10.632;2022-11-18T11:15:26;93384.19;;;7.77;91.17
56330;BME280;42236;48.058;10.632;2022-11-18T11:18:19;93390.06;;;7.83;90.74
56330;BME280;42236;48.058;10.632;2022-11-18T11:21:25;93384.94;;;7.78;91.03
56330;BME280;42236;48.058;10.632;2022-11-18T11:24:12;93394.16;;;7.77;90.81
56330;BME280;42236;48.058;10.632;2022-11-18T11:30:19;93397.69;;;7.61;91.47
56330;BME280;42236;48.058;10.632;2022-11-18T11:33:17;93396.66;;;7.50;91.92
56330;BME280;42236;48.058;10.632;2022-11-18T11:36:19;93400.88;;;7.51;92.85
56330;BME280;42236;48.058;10.632;2022-11-18T11:39:46;93402.59;;;7.40;93.56
56330;BME280;42236;48.058;10.632;2022-11-18T11:43:08;93406.66;;;7.34;93.97
56330;BME280;42236;48.058;10.632;2022-11-18T11:49:17;93410.81;;;7.31;94.72
56330;BME280;42236;48.058;10.632;2022-11-18T11:52:24;93410.91;;;7.35;94.46
56330;BME280;42236;48.058;10.632;2022-11-18T11:55:18;93425.59;;;7.41;94.96
56330;BME280;42236;48.058;10.632;2022-11-18T12:04:39;93417.63;;;7.44;93.84
56330;BME280;42236;48.058;10.632;2022-11-18T12:07:31;93429.47;;;7.43;93.60
56330;BME280;42236;48.058;10.632;2022-11-18T12:10:47;93426.53;;;7.48;93.97
56330;BME280;42236;48.058;10.632;2022-11-18T12:13:54;93425.31;;;7.46;93.95
56330;BME280;42236;48.058;10.632;2022-11-18T12:16:51;93423.38;;;7.27;95.01
56330;BME280;42236;48.058;10.632;2022-11-18T12:19:40;93426.84;;;7.28;95.56
56330;BME280;42236;48.058;10.632;2022-11-18T12:23:32;93417.66;;;7.29;95.29
56330;BME280;42236;48.058;10.632;2022-11-18T12:26:11;93420.94;;;7.38;95.11
56330;BME280;42236;48.058;10.632;2022-11-18T12:35:33;93431.09;;;7.64;94.25
56330;BME280;42236;48.058;10.632;2022-11-18T12:38:30;93438.44;;;7.67;94.07
56330;BME280;42236;48.058;10.632;2022-11-18T12:44:44;93439.44;;;7.78;94.69
56330;BME280;42236;48.058;10.632;2022-11-18T12:50:53;93437.09;;;7.77;93.37
56330;BME280;42236;48.058;10.632;2022-11-18T12:53:44;93440.78;;;7.88;94.46
56330;BME280;42236;48.058;10.632;2022-11-18T12:56:35;93435.13;;;7.93;94.06
56330;BME280;42236;48.058;10.632;2022-11-18T12:59:29;93432.47;;;7.93;93.31
56330;BME280;42236;48.058;10.632;2022-11-18T13:05:21;93437.53;;;7.98;92.97
56330;BME280;42236;48.058;10.632;2022-11-18T13:08:11;93441.09;;;8.02;92.95
56330;BME280;42236;48.058;10.632;2022-11-18T13:11:14;93450.06;;;8.10;92.83
56330;BME280;42236;48.058;10.632;2022-11-18T13:17:29;93469.44;;;8.39;92.51
56330;BME280;42236;48.058;10.632;2022-11-18T13:20:38;93462.94;;;8.40;90.90
56330;BME280;42236;48.058;10.632;2022-11-18T13:23:29;93464.13;;;8.23;91.48
56330;BME280;42236;48.058;10.632;2022-11-18T13:26:34;93469.97;;;8.09;91.86
56330;BME280;42236;48.058;10.632;2022-11-18T13:29:34;93476.19;;;7.94;91.97
56330;BME280;42236;48.058;10.632;2022-11-18T13:32:26;93473.78;;;7.88;92.48
56330;BME280;42236;48.058;10.632;2022-11-18T13:35:20;93463.84;;;7.73;91.64
56330;BME280;42236;48.058;10.632;2022-11-18T13:38:18;93466.13;;;7.71;92.31
56330;BME280;42236;48.058;10.632;2022-11-18T13:41:13;93460.63;;;7.64;91.99
56330;BME280;42236;48.058;10.632;2022-11-18T13:44:10;93452.19;;;7.65;92.03
56330;BME280;42236;48.058;10.632;2022-11-18T13:53:13;93465.28;;;7.51;89.89
56330;BME280;42236;48.058;10.632;2022-11-18T13:56:06;93466.44;;;7.34;90.68
56330;BME280;42236;48.058;10.632;2022-11-18T13:59:01;93477.38;;;7.25;90.83
56330;BME280;42236;48.058;10.632;2022-11-18T14:01:53;93474.69;;;7.10;91.55
56330;BME280;42236;48.058;10.632;2022-11-18T14:04:48;93488.53;;;6.96;92.25
56330;BME280;42236;48.058;10.632;2022-11-18T14:07:35;93487.50;;;6.84;92.65
56330;BME280;42236;48.058;10.632;2022-11-18T14:10:28;93489.56;;;6.75;94.41
56330;BME280;42236;48.058;10.632;2022-11-18T14:13:25;93493.53;;;6.66;94.76
56330;BME280;42236;48.058;10.632;2022-11-18T14:19:03;93504.63;;;6.52;96.06
56330;BME280;42236;48.058;10.632;2022-11-18T14:21:49;93506.00;;;6.46;96.71
56330;BME280;42236;48.058;10.632;2022-11-18T14:24:35;93511.72;;;6.44;96.94
56330;BME280;42236;48.058;10.632;2022-11-18T14:27:38;93523.81;;;6.38;97.54
56330;BME280;42236;48.058;10.632;2022-11-18T14:30:43;93532.69;;;6.14;97.51
56330;BME280;42236;48.058;10.632;2022-11-18T14:33:39;93531.84;;;5.85;96.47
56330;BME280;42236;48.058;10.632;2022-11-18T14:36:24;93528.97;;;5.66;98.13
56330;BME280;42236;48.058;10.632;2022-11-18T14:39:30;93532.53;;;5.57;99.02
56330;BME280;42236;48.058;10.632;2022-11-18T14:42:16;93538.44;;;5.51;99.41
56330;BME280;42236;48.058;10.632;2022-11-18T14:45:01;93533.09;;;5.51;100.00
56330;BME280;42236;48.058;10.632;2022-11-18T14:47:47;93528.63;;;5.55;99.50
56330;BME280;42236;48.058;10.632;2022-11-18T14:50:33;93532.66;;;5.61;99.50
56330;BME280;42236;48.058;10.632;2022-11-18T14:53:19;93534.97;;;5.63;100.00
56330;BME280;42236;48.058;10.632;2022-11-18T14:56:11;93539.66;;;5.66;99.99
56330;BME280;42236;48.058;10.632;2022-11-18T14:58:58;93541.22;;;5.67;100.00
56330;BME280;42236;48.058;10.632;2022-11-18T15:01:44;93543.44;;;5.65;99.69
56330;BME280;42236;48.058;10.632;2022-11-18T15:04:29;93534.75;;;5.68;100.00
56330;BME280;42236;48.058;10.632;2022-11-18T15:07:15;93543.22;;;5.70;100.00
56330;BME280;42236;48.058;10.632;2022-11-18T15:10:02;93552.81;;;5.71;100.00
56330;BME280;42236;48.058;10.632;2022-11-18T15:12:48;93552.91;;;5.74;100.00
56330;BME280;42236;48.058;10.632;2022-11-18T15:15:33;93559.94;;;5.79;100.00
56330;BME280;42236;48.058;10.632;2022-11-18T15:18:19;93557.69;;;5.81;100.00
56330;BME280;42236;48.058;10.632;2022-11-18T15:21:09;93571.53;;;5.83;100.00
56330;BME280;42236;48.058;10.632;2022-11-18T15:23:55;93571.09;;;5.81;100.00
56330;BME280;42236;48.058;10.632;2022-11-18T15:26:43;93576.09;;;5.83;99.93
56330;BME280;42236;48.058;10.632;2022-11-18T15:29:30;93581.56;;;5.86;100.00
56330;BME280;42236;48.058;10.632;2022-11-18T15:32:16;93577.44;;;5.89;100.00
56330;BME280;42236;48.058;10.632;2022-11-18T15:35:01;93592.38;;;5.90;100.00
56330;BME280;42236;48.058;10.632;2022-11-18T15:37:47;93576.75;;;5.92;99.84
56330;BME280;42236;48.058;10.632;2022-11-18T15:40:32;93579.09;;;5.93;99.66
56330;BME280;42236;48.058;10.632;2022-11-18T15:43:19;93581.78;;;5.93;98.94
56330;BME280;42236;48.058;10.632;2022-11-18T15:46:05;93591.41;;;5.94;98.59
56330;BME280;42236;48.058;10.632;2022-11-18T15:48:51;93589.34;;;5.91;98.28
56330;BME280;42236;48.058;10.632;2022-11-18T15:51:37;93589.25;;;5.88;98.20
56330;BME280;42236;48.058;10.632;2022-11-18T15:54:24;93597.75;;;5.77;97.95
56330;BME280;42236;48.058;10.632;2022-11-18T15:57:10;93597.19;;;5.72;98.12
56330;BME280;42236;48.058;10.632;2022-11-18T15:59:55;93596.72;;;5.70;98.60
56330;BME280;42236;48.058;10.632;2022-11-18T16:02:41;93600.06;;;5.67;98.48
56330;BME280;42236;48.058;10.632;2022-11-18T16:05:27;93600.06;;;5.67;98.54